createdAt,value
2022-08-07T00:00:11.843Z,0.40
2022-08-07T00:01:44.564Z,0.38
2022-08-07T00:02:44.327Z,0.40
2022-08-07T00:03:47.305Z,0.50
2022-08-07T00:04:49.206Z,0.52
2022-08-07T00:05:53.993Z,0.40
2022-08-07T00:06:55.438Z,0.40
2022-08-07T00:07:58.337Z,0.40
2022-08-07T00:09:16.175Z,0.40
2022-08-07T00:10:27.086Z,0.47
2022-08-07T00:11:33.171Z,0.35
2022-08-07T00:12:34.834Z,0.60
2022-08-07T00:13:46.122Z,0.60
2022-08-07T00:14:47.975Z,0.43
2022-08-07T00:15:51.596Z,0.43
2022-08-07T00:16:53.107Z,0.50
2022-08-07T00:17:54.463Z,0.52
2022-08-07T00:18:56.093Z,0.50
2022-08-07T00:20:02.592Z,0.52
2022-08-07T00:21:07.915Z,0.50
2022-08-07T00:22:35.259Z,0.22
2022-08-07T00:23:39.517Z,0.35
2022-08-07T00:24:41.799Z,0.30
2022-08-07T00:25:52.553Z,0.40
2022-08-07T00:27:07.148Z,0.40
2022-08-07T00:28:11.635Z,0.50
2022-08-07T00:29:13.008Z,0.50
2022-08-07T00:30:21.793Z,0.45
2022-08-07T00:31:37.881Z,0.50
2022-08-07T00:32:42.986Z,0.40
2022-08-07T00:33:47.588Z,0.60
2022-08-07T00:34:50.692Z,0.40
2022-08-07T00:35:52.645Z,0.35
2022-08-07T00:36:54.390Z,0.35
2022-08-07T00:37:55.815Z,0.40
2022-08-07T00:38:58.331Z,0.32
2022-08-07T00:40:00.462Z,0.40
2022-08-07T00:41:02.238Z,0.40
2022-08-07T00:42:05.180Z,0.35
2022-08-07T00:43:09.704Z,0.47
2022-08-07T00:44:12.121Z,0.40
2022-08-07T00:45:16.584Z,0.32
2022-08-07T00:46:21.715Z,0.40
2022-08-07T00:48:08.814Z,0.38
2022-08-07T00:48:45.383Z,0.40
2022-08-07T00:50:19.443Z,0.38
2022-08-07T00:51:13.354Z,0.30
2022-08-07T00:52:14.789Z,0.40
2022-08-07T00:53:21.154Z,0.50
2022-08-07T00:54:23.413Z,0.40
2022-08-07T00:56:02.929Z,0.50
2022-08-07T00:56:49.577Z,0.65
2022-08-07T00:57:55.827Z,0.60
2022-08-07T00:58:57.677Z,0.40
2022-08-07T00:59:59.790Z,0.40
2022-08-07T01:01:01.220Z,0.45
2022-08-07T01:02:04.391Z,0.60
2022-08-07T01:03:10.699Z,0.55
2022-08-07T01:04:24.679Z,0.43
2022-08-07T01:05:26.900Z,0.47
2022-08-07T01:06:31.733Z,0.60
2022-08-07T01:07:33.236Z,0.50
2022-08-07T01:08:35.119Z,0.63
2022-08-07T01:10:04.730Z,1.08
2022-08-07T01:12:04.762Z,0.63
2022-08-07T01:12:29.886Z,0.60
2022-08-07T01:13:35.196Z,0.57
2022-08-07T01:14:37.270Z,0.52
2022-08-07T01:16:05.598Z,0.63
2022-08-07T01:17:00.690Z,0.50
2022-08-07T01:18:09.627Z,0.65
2022-08-07T01:19:19.010Z,0.60
2022-08-07T01:20:30.838Z,0.40
2022-08-07T01:21:32.992Z,0.68
2022-08-07T01:22:46.712Z,0.70
2022-08-07T01:23:58.229Z,0.70
2022-08-07T01:24:59.731Z,0.70
2022-08-07T01:26:01.981Z,0.85
2022-08-07T01:27:03.563Z,0.65
2022-08-07T01:28:05.807Z,0.50
2022-08-07T01:29:07.224Z,0.40
2022-08-07T01:30:09.567Z,0.60
2022-08-07T01:31:15.218Z,0.60
2022-08-07T01:32:19.844Z,0.50
2022-08-07T01:33:24.837Z,0.60
2022-08-07T01:34:47.237Z,0.60
2022-08-07T01:35:53.183Z,0.80
2022-08-07T01:36:59.139Z,0.52
2022-08-07T01:38:03.072Z,0.60
2022-08-07T01:39:09.933Z,0.70
2022-08-07T01:40:16.192Z,0.65
2022-08-07T01:41:27.589Z,0.60
2022-08-07T01:42:38.729Z,0.70
2022-08-07T01:43:42.710Z,0.73
2022-08-07T01:44:44.540Z,0.47
2022-08-07T01:45:49.955Z,0.52
2022-08-07T01:46:57.274Z,0.40
2022-08-07T01:48:18.555Z,0.60
2022-08-07T01:49:23.268Z,0.60
2022-08-07T01:50:28.789Z,0.57
2022-08-07T01:52:03.342Z,0.40
2022-08-07T01:52:56.096Z,0.43
2022-08-07T01:54:11.954Z,0.50
2022-08-07T01:55:26.666Z,0.40
2022-08-07T01:56:49.504Z,0.55
2022-08-07T01:58:06.112Z,0.40
2022-08-07T01:59:16.857Z,0.40
2022-08-07T02:00:18.419Z,0.60
2022-08-07T02:02:01.966Z,0.50
2022-08-07T02:03:12.247Z,0.43
2022-08-07T02:04:26.663Z,0.40
2022-08-07T02:05:43.417Z,0.40
2022-08-07T02:06:58.823Z,0.30
2022-08-07T02:08:02.931Z,0.50
2022-08-07T02:09:11.916Z,0.50
2022-08-07T02:10:36.111Z,0.40
2022-08-07T02:12:03.704Z,0.40
2022-08-07T02:13:09.098Z,0.50
2022-08-07T02:14:36.366Z,0.40
2022-08-07T02:15:41.712Z,0.60
2022-08-07T02:16:43.878Z,0.52
2022-08-07T02:17:49.503Z,0.50
2022-08-07T02:18:52.359Z,0.55
2022-08-07T02:20:04.686Z,0.50
2022-08-07T02:21:08.447Z,0.40
2022-08-07T02:22:21.143Z,0.63
2022-08-07T02:23:28.082Z,0.40
2022-08-07T02:24:30.160Z,0.40
2022-08-07T02:26:31.669Z,0.50
2022-08-07T02:26:55.452Z,0.60
2022-08-07T02:28:02.085Z,0.68
2022-08-07T02:29:13.670Z,0.55
2022-08-07T02:30:16.504Z,0.70
2022-08-07T02:31:28.398Z,0.50
2022-08-07T02:32:31.677Z,0.40
2022-08-07T02:33:57.478Z,0.43
2022-08-07T02:34:56.705Z,0.40
2022-08-07T02:36:29.081Z,0.47
2022-08-07T02:37:23.583Z,0.47
2022-08-07T02:38:28.236Z,0.80
2022-08-07T02:39:43.495Z,0.40
2022-08-07T02:40:58.161Z,0.35
2022-08-07T02:42:00.523Z,0.57
2022-08-07T02:43:07.670Z,0.43
2022-08-07T02:44:09.974Z,0.30
2022-08-07T02:46:00.411Z,0.47
2022-08-07T02:46:36.870Z,0.70
2022-08-07T02:47:45.025Z,0.40
2022-08-07T02:48:54.984Z,0.52
2022-08-07T02:49:59.894Z,0.60
2022-08-07T02:51:14.400Z,0.45
2022-08-07T02:52:37.202Z,0.63
2022-08-07T02:53:42.393Z,0.40
2022-08-07T02:54:48.070Z,0.40
2022-08-07T02:56:04.250Z,0.50
2022-08-07T02:57:08.451Z,0.40
2022-08-07T02:58:11.853Z,0.47
2022-08-07T02:59:17.019Z,0.50
2022-08-07T03:00:18.656Z,0.50
2022-08-07T03:01:36.287Z,0.40
2022-08-07T03:02:41.867Z,0.40
2022-08-07T03:03:57.149Z,0.50
2022-08-07T03:05:06.742Z,0.50
2022-08-07T03:06:16.459Z,0.60
2022-08-07T03:07:58.868Z,0.50
2022-08-07T03:08:51.025Z,0.60
2022-08-07T03:09:53.442Z,0.50
2022-08-07T03:10:55.737Z,0.43
2022-08-07T03:12:05.176Z,0.43
2022-08-07T03:13:10.141Z,0.50
2022-08-07T03:14:12.329Z,0.52
2022-08-07T03:15:14.580Z,0.50
2022-08-07T03:16:32.405Z,0.80
2022-08-07T03:17:36.439Z,0.50
2022-08-07T03:18:55.523Z,0.70
2022-08-07T03:19:57.133Z,0.60
2022-08-07T03:21:01.645Z,0.50
2022-08-07T03:22:04.791Z,0.63
2022-08-07T03:23:18.953Z,0.60
2022-08-07T03:24:26.931Z,0.52
2022-08-07T03:25:41.519Z,0.65
2022-08-07T03:26:51.129Z,0.88
2022-08-07T03:28:09.609Z,0.82
2022-08-07T03:29:22.170Z,0.80
2022-08-07T03:30:24.763Z,0.90
2022-08-07T03:31:43.055Z,0.85
2022-08-07T03:32:58.860Z,0.77
2022-08-07T03:34:06.274Z,0.95
2022-08-07T03:35:17.901Z,1.10
2022-08-07T03:36:21.597Z,1.30
2022-08-07T03:37:29.407Z,1.00
2022-08-07T03:38:35.197Z,0.80
2022-08-07T03:39:56.550Z,0.90
2022-08-07T03:41:03.384Z,0.98
2022-08-07T03:42:06.967Z,0.90
2022-08-07T03:43:10.132Z,0.73
2022-08-07T03:44:31.757Z,0.85
2022-08-07T03:45:33.922Z,0.90
2022-08-07T03:47:13.123Z,1.00
2022-08-07T03:48:10.154Z,1.08
2022-08-07T03:49:13.049Z,0.90
2022-08-07T03:50:23.047Z,1.50
2022-08-07T03:51:30.860Z,1.02
2022-08-07T03:52:32.500Z,0.90
2022-08-07T03:54:05.575Z,1.05
2022-08-07T03:55:06.731Z,1.10
2022-08-07T03:56:10.290Z,0.93
2022-08-07T03:58:34.396Z,0.85
2022-08-07T03:59:08.993Z,0.80
2022-08-07T04:00:01.535Z,1.13
2022-08-07T04:01:07.568Z,0.90
2022-08-07T04:02:13.469Z,1.27
2022-08-07T04:03:16.346Z,1.20
2022-08-07T04:04:18.239Z,1.17
2022-08-07T04:05:39.206Z,1.30
2022-08-07T04:06:44.218Z,1.17
2022-08-07T04:07:51.235Z,0.73
2022-08-07T04:08:58.002Z,1.08
2022-08-07T04:10:00.114Z,0.70
2022-08-07T04:12:23.349Z,0.60
2022-08-07T04:12:29.073Z,0.85
2022-08-07T04:14:14.030Z,0.93
2022-08-07T04:14:56.257Z,0.90
2022-08-07T04:15:57.854Z,1.00
2022-08-07T04:16:59.750Z,0.90
2022-08-07T04:18:56.445Z,0.70
2022-08-07T04:19:51.125Z,0.95
2022-08-07T04:20:54.550Z,0.75
2022-08-07T04:22:04.848Z,0.80
2022-08-07T04:23:18.445Z,1.00
2022-08-07T04:24:30.646Z,1.30
2022-08-07T04:25:39.361Z,1.55
2022-08-07T04:26:43.777Z,1.30
2022-08-07T04:27:46.219Z,1.10
2022-08-07T04:29:00.894Z,0.93
2022-08-07T04:30:13.398Z,1.05
2022-08-07T04:31:39.030Z,0.80
2022-08-07T04:32:58.549Z,1.00
2022-08-07T04:34:02.324Z,1.10
2022-08-07T04:35:05.765Z,1.05
2022-08-07T04:36:08.868Z,0.90
2022-08-07T04:37:15.301Z,1.10
2022-08-07T04:38:22.222Z,1.02
2022-08-07T04:39:26.246Z,1.00
2022-08-07T04:40:31.351Z,1.02
2022-08-07T04:41:36.830Z,0.90
2022-08-07T04:42:38.465Z,1.20
2022-08-07T04:44:09.676Z,0.95
2022-08-07T04:45:08.600Z,1.48
2022-08-07T04:46:20.044Z,1.48
2022-08-07T04:48:01.344Z,0.85
2022-08-07T04:48:52.064Z,0.93
2022-08-07T04:50:03.869Z,1.00
2022-08-07T04:51:11.069Z,1.27
2022-08-07T04:52:18.413Z,1.08
2022-08-07T04:54:01.661Z,1.10
2022-08-07T04:55:15.642Z,1.00
2022-08-07T04:58:11.332Z,1.10
2022-08-07T04:58:33.671Z,1.05
2022-08-07T05:00:11.363Z,0.85
2022-08-07T05:01:13.624Z,0.85
2022-08-07T05:02:22.602Z,0.90
2022-08-07T05:04:00.037Z,0.85
2022-08-07T05:04:50.220Z,0.98
2022-08-07T05:06:02.282Z,0.95
2022-08-07T05:07:30.480Z,0.77
2022-08-07T05:09:01.063Z,0.70
2022-08-07T05:10:10.975Z,0.85
2022-08-07T05:11:19.435Z,1.23
2022-08-07T05:12:31.783Z,0.80
2022-08-07T05:14:56.174Z,0.70
2022-08-07T05:15:16.148Z,1.02
2022-08-07T05:16:27.774Z,0.88
2022-08-07T05:17:51.624Z,0.80
2022-08-07T05:18:54.518Z,0.90
2022-08-07T05:19:56.686Z,1.17
2022-08-07T05:21:00.325Z,1.08
2022-08-07T05:22:04.550Z,0.80
2022-08-07T05:23:30.915Z,0.70
2022-08-07T05:24:40.301Z,0.98
2022-08-07T05:26:13.221Z,0.85
2022-08-07T05:27:05.861Z,0.80
2022-08-07T05:28:22.877Z,1.00
2022-08-07T05:29:38.897Z,0.70
2022-08-07T05:30:49.616Z,0.75
2022-08-07T05:31:52.927Z,0.60
2022-08-07T05:32:59.702Z,0.52
2022-08-07T05:34:04.611Z,0.82
2022-08-07T05:35:10.018Z,0.73
2022-08-07T05:36:12.380Z,0.75
2022-08-07T05:37:25.677Z,0.70
2022-08-07T05:38:58.255Z,0.60
2022-08-07T05:40:16.608Z,0.50
2022-08-07T05:41:22.116Z,0.68
2022-08-07T05:42:34.701Z,0.68
2022-08-07T05:43:49.739Z,0.60
2022-08-07T05:45:25.829Z,0.45
2022-08-07T05:46:32.138Z,0.75
2022-08-07T05:47:37.847Z,0.55
2022-08-07T05:48:58.129Z,0.77
2022-08-07T05:50:01.933Z,0.50
2022-08-07T05:51:05.830Z,0.80
2022-08-07T05:52:11.721Z,0.60
2022-08-07T05:54:08.503Z,0.68
2022-08-07T05:54:53.261Z,0.52
2022-08-07T05:56:03.619Z,0.55
2022-08-07T05:57:10.729Z,0.60
2022-08-07T05:58:14.451Z,0.80
2022-08-07T05:59:18.105Z,0.77
2022-08-07T06:00:24.198Z,0.65
2022-08-07T06:01:35.916Z,0.90
2022-08-07T06:02:40.129Z,0.60
2022-08-07T06:03:58.873Z,0.70
2022-08-07T06:05:15.711Z,0.40
2022-08-07T06:06:20.074Z,0.70
2022-08-07T06:08:14.775Z,0.60
2022-08-07T06:08:46.694Z,0.70
2022-08-07T06:10:05.299Z,0.65
2022-08-07T06:11:08.688Z,0.80
2022-08-07T06:12:11.267Z,0.50
2022-08-07T06:13:17.303Z,0.60
2022-08-07T06:14:21.369Z,0.60
2022-08-07T06:15:42.220Z,0.82
2022-08-07T06:16:50.430Z,0.65
2022-08-07T06:17:55.013Z,0.70
2022-08-07T06:19:01.165Z,0.60
2022-08-07T06:20:04.058Z,0.70
2022-08-07T06:22:15.368Z,0.70
2022-08-07T06:22:29.079Z,0.70
2022-08-07T06:24:37.429Z,0.60
2022-08-07T06:25:02.947Z,0.65
2022-08-07T06:26:05.056Z,0.90
2022-08-07T06:27:08.593Z,0.90
2022-08-07T06:28:14.147Z,0.75
2022-08-07T06:29:16.407Z,0.80
2022-08-07T06:30:32.184Z,0.73
2022-08-07T06:31:49.782Z,0.80
2022-08-07T06:32:51.705Z,1.48
2022-08-07T06:33:53.426Z,1.60
2022-08-07T06:34:56.039Z,1.15
2022-08-07T06:36:12.158Z,0.77
2022-08-07T06:37:21.287Z,0.80
2022-08-07T06:38:23.515Z,0.70
2022-08-07T06:40:15.662Z,0.73
2022-08-07T06:40:52.900Z,0.80
2022-08-07T06:42:04.458Z,0.80
2022-08-07T06:43:24.914Z,0.77
2022-08-07T06:44:39.996Z,0.73
2022-08-07T06:45:44.676Z,0.88
2022-08-07T06:46:53.601Z,0.70
2022-08-07T06:48:08.274Z,0.93
2022-08-07T06:49:15.837Z,0.90
2022-08-07T06:50:18.911Z,0.93
2022-08-07T06:51:31.319Z,0.60
2022-08-07T06:52:41.748Z,0.80
2022-08-07T06:55:30.202Z,0.90
2022-08-07T06:55:34.390Z,0.75
2022-08-07T06:56:48.423Z,0.82
2022-08-07T06:58:00.557Z,0.70
2022-08-07T07:00:11.707Z,0.90
2022-08-07T07:00:36.821Z,0.95
2022-08-07T07:01:43.690Z,0.80
2022-08-07T07:02:57.655Z,0.80
2022-08-07T07:04:23.682Z,0.65
2022-08-07T07:06:02.900Z,0.85
2022-08-07T07:07:00.043Z,0.80
2022-08-07T07:08:06.651Z,0.80
2022-08-07T07:09:20.400Z,0.90
2022-08-07T07:10:29.192Z,1.38
2022-08-07T07:12:08.161Z,1.50
2022-08-07T07:12:56.387Z,0.80
2022-08-07T07:14:01.793Z,0.90
2022-08-07T07:15:09.159Z,0.90
2022-08-07T07:16:27.454Z,1.08
2022-08-07T07:17:38.745Z,0.98
2022-08-07T07:18:43.114Z,1.00
2022-08-07T07:19:57.775Z,0.90
2022-08-07T07:21:03.097Z,0.80
2022-08-07T07:22:34.061Z,0.88
2022-08-07T07:24:08.948Z,1.08
2022-08-07T07:24:58.337Z,1.20
2022-08-07T07:26:33.921Z,1.10
2022-08-07T07:27:35.719Z,1.05
2022-08-07T07:29:40.688Z,1.10
2022-08-07T07:30:32.636Z,1.20
2022-08-07T07:31:46.657Z,1.30
2022-08-07T07:32:48.425Z,1.48
2022-08-07T07:33:56.977Z,1.17
2022-08-07T07:35:00.193Z,1.15
2022-08-07T07:36:13.091Z,1.17
2022-08-07T07:37:56.144Z,1.23
2022-08-07T07:38:41.748Z,1.30
2022-08-07T07:39:54.595Z,1.02
2022-08-07T07:41:02.534Z,0.90
2022-08-07T07:42:13.288Z,1.30
2022-08-07T07:43:18.744Z,1.50
2022-08-07T07:44:28.968Z,1.50
2022-08-07T07:46:37.966Z,1.73
2022-08-07T07:46:54.674Z,1.40
2022-08-07T07:48:02.081Z,1.30
2022-08-07T07:49:09.182Z,1.27
2022-08-07T07:50:35.099Z,1.20
2022-08-07T07:51:58.568Z,1.40
2022-08-07T07:53:02.192Z,1.25
2022-08-07T07:54:05.579Z,1.25
2022-08-07T07:55:07.562Z,1.20
2022-08-07T07:56:09.144Z,1.48
2022-08-07T07:57:11.200Z,1.63
2022-08-07T07:58:13.833Z,1.40
2022-08-07T07:59:23.789Z,1.50
2022-08-07T08:00:42.607Z,1.40
2022-08-07T08:02:01.666Z,1.20
2022-08-07T08:03:08.267Z,1.33
2022-08-07T08:04:12.109Z,1.45
2022-08-07T08:05:15.204Z,1.90
2022-08-07T08:06:18.617Z,1.80
2022-08-07T08:07:20.335Z,1.30
2022-08-07T08:08:35.777Z,1.90
2022-08-07T08:09:52.497Z,1.70
2022-08-07T08:11:01.344Z,1.60
2022-08-07T08:12:06.117Z,1.63
2022-08-07T08:13:10.358Z,1.30
2022-08-07T08:14:18.407Z,1.50
2022-08-07T08:15:26.579Z,1.50
2022-08-07T08:16:31.898Z,1.30
2022-08-07T08:18:17.503Z,1.50
2022-08-07T08:19:00.478Z,1.45
2022-08-07T08:20:23.129Z,1.58
2022-08-07T08:22:00.713Z,1.30
2022-08-07T08:23:28.024Z,1.48
2022-08-07T08:24:56.999Z,1.50
2022-08-07T08:26:27.147Z,1.30
2022-08-07T08:27:33.657Z,1.60
2022-08-07T08:28:39.203Z,1.00
2022-08-07T08:30:19.508Z,1.35
2022-08-07T08:31:59.315Z,1.50
2022-08-07T08:32:49.885Z,1.50
2022-08-07T08:33:55.477Z,1.42
2022-08-07T08:34:57.969Z,1.20
2022-08-07T08:36:00.354Z,1.50
2022-08-07T08:37:03.245Z,1.25
2022-08-07T08:38:12.950Z,1.30
2022-08-07T08:39:15.410Z,1.33
2022-08-07T08:40:28.679Z,2.63
2022-08-07T08:41:59.073Z,1.27
2022-08-07T08:43:05.164Z,1.35
2022-08-07T08:44:17.483Z,1.33
2022-08-07T08:45:59.261Z,1.27
2022-08-07T08:47:14.029Z,1.30
2022-08-07T08:48:38.218Z,1.27
2022-08-07T08:50:02.149Z,1.40
2022-08-07T08:51:14.811Z,1.38
2022-08-07T08:52:32.172Z,1.30
2022-08-07T08:53:53.837Z,2.70
2022-08-07T08:54:59.238Z,1.25
2022-08-07T08:56:04.582Z,1.23
2022-08-07T08:57:09.197Z,1.10
2022-08-07T08:58:20.449Z,1.10
2022-08-07T08:59:29.252Z,1.20
2022-08-07T09:00:32.520Z,1.48
2022-08-07T09:01:49.301Z,1.50
2022-08-07T09:03:07.467Z,1.38
2022-08-07T09:04:36.613Z,1.40
2022-08-07T09:05:43.291Z,1.30
2022-08-07T09:06:52.181Z,1.50
2022-08-07T09:08:12.568Z,1.13
2022-08-07T09:09:30.290Z,1.30
2022-08-07T09:10:38.272Z,1.15
2022-08-07T09:11:54.471Z,0.90
2022-08-07T09:13:06.876Z,1.00
2022-08-07T09:14:13.033Z,1.20
2022-08-07T09:16:25.154Z,1.23
2022-08-07T09:16:48.595Z,1.00
2022-08-07T09:18:06.077Z,1.17
2022-08-07T09:19:50.931Z,0.93
2022-08-07T09:21:01.045Z,1.10
2022-08-07T09:24:27.181Z,1.00
2022-08-07T09:24:35.123Z,1.17
2022-08-07T09:25:24.182Z,1.17
2022-08-07T09:26:31.778Z,1.20
2022-08-07T09:27:59.910Z,1.00
2022-08-07T09:30:01.165Z,0.90
2022-08-07T09:30:46.300Z,0.73
2022-08-07T09:31:49.427Z,0.98
2022-08-07T09:33:05.480Z,0.90
2022-08-07T09:34:22.384Z,0.90
2022-08-07T09:36:00.901Z,0.90
2022-08-07T09:37:03.148Z,0.70
2022-08-07T09:38:10.365Z,0.70
2022-08-07T09:39:55.369Z,0.70
2022-08-07T09:41:03.649Z,0.88
2022-08-07T09:42:11.904Z,0.75
2022-08-07T09:43:40.098Z,0.80
2022-08-07T09:47:24.494Z,0.82
2022-08-07T09:47:51.623Z,0.60
2022-08-07T09:48:04.996Z,0.60
2022-08-07T09:50:01.713Z,0.68
2022-08-07T09:50:40.280Z,0.70
2022-08-07T09:52:15.606Z,0.82
2022-08-07T09:53:20.143Z,0.90
2022-08-07T09:54:28.229Z,0.80
2022-08-07T09:56:02.753Z,0.60
2022-08-07T09:57:16.029Z,0.82
2022-08-07T09:58:20.455Z,0.68
2022-08-07T10:00:00.880Z,0.75
2022-08-07T10:01:51.375Z,0.70
2022-08-07T10:02:40.439Z,0.60
2022-08-07T10:04:06.492Z,0.60
2022-08-07T10:05:21.420Z,0.63
2022-08-07T10:07:01.454Z,0.60
2022-08-07T10:08:25.460Z,0.50
2022-08-07T10:10:00.341Z,0.68
2022-08-07T10:11:59.817Z,0.60
2022-08-07T10:12:34.682Z,0.60
2022-08-07T10:14:00.337Z,0.80
2022-08-07T10:15:18.536Z,0.70
2022-08-07T10:16:37.829Z,0.60
2022-08-07T10:18:01.027Z,0.70
2022-08-07T10:19:11.766Z,0.60
2022-08-07T10:20:30.272Z,0.65
2022-08-07T10:22:16.069Z,0.60
2022-08-07T10:23:12.162Z,0.70
2022-08-07T10:24:22.806Z,0.75
2022-08-07T10:25:42.188Z,0.70
2022-08-07T10:27:06.647Z,0.57
2022-08-07T10:28:14.558Z,1.02
2022-08-07T10:29:15.944Z,0.50
2022-08-07T10:30:18.755Z,0.50
2022-08-07T10:31:23.524Z,0.60
2022-08-07T10:32:52.569Z,0.40
2022-08-07T10:34:05.556Z,0.80
2022-08-07T10:35:20.225Z,0.57
2022-08-07T10:36:48.236Z,0.50
2022-08-07T10:38:21.558Z,0.60
2022-08-07T10:40:02.662Z,0.50
2022-08-07T10:41:52.413Z,0.70
2022-08-07T10:43:07.211Z,0.70
2022-08-07T10:44:28.461Z,0.60
2022-08-07T10:45:44.943Z,0.50
2022-08-07T10:46:59.671Z,0.60
2022-08-07T10:48:03.767Z,0.47
2022-08-07T10:49:24.420Z,0.98
2022-08-07T10:50:26.554Z,0.60
2022-08-07T10:52:02.279Z,0.80
2022-08-07T10:53:21.521Z,0.40
2022-08-07T10:54:53.410Z,0.50
2022-08-07T10:56:07.057Z,0.50
2022-08-07T10:57:34.755Z,0.45
2022-08-07T10:58:47.672Z,0.70
2022-08-07T11:00:06.727Z,0.50
2022-08-07T11:01:22.273Z,0.50
2022-08-07T11:02:34.218Z,0.50
2022-08-07T11:03:52.714Z,0.50
2022-08-07T11:05:10.462Z,0.55
2022-08-07T11:06:18.523Z,0.60
2022-08-07T11:07:58.342Z,0.57
2022-08-07T11:08:57.694Z,0.52
2022-08-07T11:10:08.465Z,0.63
2022-08-07T11:11:22.119Z,0.60
2022-08-07T11:12:31.499Z,0.40
2022-08-07T11:14:57.427Z,0.70
2022-08-07T11:15:17.917Z,1.80
2022-08-07T11:16:31.787Z,0.73
2022-08-07T11:17:43.163Z,0.77
2022-08-07T11:19:01.083Z,0.43
2022-08-07T11:20:18.605Z,0.40
2022-08-07T11:21:43.242Z,0.47
2022-08-07T11:22:47.929Z,0.60
2022-08-07T11:23:55.663Z,0.60
2022-08-07T11:25:21.221Z,0.60
2022-08-07T11:26:45.049Z,0.60
2022-08-07T11:28:04.326Z,0.50
2022-08-07T11:29:13.102Z,0.50
2022-08-07T11:30:41.693Z,0.70
2022-08-07T11:31:47.123Z,0.60
2022-08-07T11:32:58.822Z,0.40
2022-08-07T11:34:10.198Z,0.60
2022-08-07T11:35:25.125Z,0.57
2022-08-07T11:36:39.365Z,0.50
2022-08-07T11:37:57.789Z,0.40
2022-08-07T11:39:39.719Z,0.55
2022-08-07T11:41:08.752Z,0.57
2022-08-07T11:42:29.564Z,0.50
2022-08-07T11:44:11.327Z,0.50
2022-08-07T11:45:35.450Z,0.43
2022-08-07T11:46:59.302Z,0.82
2022-08-07T11:48:18.266Z,0.82
2022-08-07T11:50:11.313Z,0.60
2022-08-07T11:51:40.791Z,0.50
2022-08-07T11:53:06.508Z,0.45
2022-08-07T11:54:10.057Z,0.60
2022-08-07T11:55:18.962Z,0.52
2022-08-07T11:56:52.202Z,0.40
2022-08-07T11:58:16.223Z,0.35
2022-08-07T12:00:11.795Z,0.40
2022-08-07T12:01:59.591Z,0.50
2022-08-07T12:03:44.324Z,0.52
2022-08-07T12:04:34.894Z,0.50
2022-08-07T12:05:49.131Z,0.40
2022-08-07T12:07:08.905Z,0.50
2022-08-07T12:08:31.917Z,0.52
2022-08-07T12:09:40.551Z,0.43
2022-08-07T12:10:49.834Z,0.50
2022-08-07T12:12:12.099Z,0.40
2022-08-07T12:13:47.494Z,0.35
2022-08-07T12:15:00.340Z,0.50
2022-08-07T12:16:09.772Z,0.50
2022-08-07T12:17:20.343Z,0.50
2022-08-07T12:18:45.300Z,0.50
2022-08-07T12:20:03.178Z,0.30
2022-08-07T12:21:09.953Z,0.40
2022-08-07T12:22:56.381Z,0.47
2022-08-07T12:24:37.332Z,0.70
2022-08-07T12:26:22.317Z,0.50
2022-08-07T12:27:27.882Z,0.60
2022-08-07T12:28:54.078Z,0.50
2022-08-07T12:29:59.613Z,0.50
2022-08-07T12:31:06.374Z,0.60
2022-08-07T12:32:29.791Z,0.55
2022-08-07T12:34:00.749Z,0.70
2022-08-07T12:34:56.084Z,0.45
2022-08-07T12:35:59.306Z,0.43
2022-08-07T12:37:08.506Z,0.35
2022-08-07T12:38:38.623Z,0.20
2022-08-07T12:39:50.575Z,0.52
2022-08-07T12:40:55.437Z,0.47
2022-08-07T12:41:59.471Z,0.43
2022-08-07T12:43:09.898Z,0.50
2022-08-07T12:44:17.116Z,0.50
2022-08-07T12:45:27.041Z,0.45
2022-08-07T12:46:52.436Z,0.40
2022-08-07T12:48:02.387Z,0.30
2022-08-07T12:49:39.341Z,0.30
2022-08-07T12:50:59.248Z,0.50
2022-08-07T12:52:27.904Z,0.50
2022-08-07T12:54:36.586Z,0.40
2022-08-07T12:55:16.554Z,0.50
2022-08-07T12:56:26.698Z,0.50
2022-08-07T12:57:59.077Z,0.40
2022-08-07T12:58:58.025Z,0.30
2022-08-07T13:00:04.046Z,0.50
2022-08-07T13:01:37.064Z,0.50
2022-08-07T13:02:51.139Z,0.50
2022-08-07T13:04:02.240Z,0.52
2022-08-07T13:06:02.579Z,0.43
2022-08-07T13:07:00.776Z,0.68
2022-08-07T13:08:13.824Z,0.40
2022-08-07T13:10:19.770Z,0.50
2022-08-07T13:11:05.475Z,0.47
2022-08-07T13:12:15.201Z,0.40
2022-08-07T13:13:47.116Z,0.50
2022-08-07T13:14:51.098Z,0.50
2022-08-07T13:16:17.229Z,0.50
2022-08-07T13:17:21.360Z,0.50
2022-08-07T13:18:44.596Z,0.40
2022-08-07T13:20:02.764Z,0.50
2022-08-07T13:21:13.944Z,0.50
2022-08-07T13:22:27.864Z,0.40
2022-08-07T13:24:01.537Z,0.50
2022-08-07T13:25:29.023Z,0.63
2022-08-07T13:26:35.359Z,0.50
2022-08-07T13:28:12.775Z,0.50
2022-08-07T13:29:15.211Z,0.45
2022-08-07T13:30:18.959Z,0.47
2022-08-07T13:31:32.179Z,0.50
2022-08-07T13:34:14.912Z,0.50
2022-08-07T13:34:38.380Z,0.38
2022-08-07T13:36:00.605Z,0.40
2022-08-07T13:37:22.069Z,0.30
2022-08-07T13:38:27.937Z,0.43
2022-08-07T13:40:33.990Z,0.57
2022-08-07T13:41:23.380Z,0.40
2022-08-07T13:42:32.602Z,0.50
2022-08-07T13:43:41.608Z,0.40
2022-08-07T13:44:44.024Z,0.40
2022-08-07T13:46:12.490Z,0.45
2022-08-07T13:47:25.099Z,0.50
2022-08-07T13:48:34.155Z,0.47
2022-08-07T13:50:33.120Z,0.45
2022-08-07T13:51:28.505Z,0.77
2022-08-07T13:52:36.261Z,0.50
2022-08-07T13:53:59.590Z,0.40
2022-08-07T13:55:06.939Z,0.40
2022-08-07T13:56:08.923Z,0.30
2022-08-07T13:57:23.815Z,0.40
2022-08-07T13:58:56.208Z,0.45
2022-08-07T13:59:59.899Z,0.60
2022-08-07T14:01:08.862Z,0.47
2022-08-07T14:02:13.420Z,0.50
2022-08-07T14:03:16.805Z,0.30
2022-08-07T14:04:36.709Z,0.40
2022-08-07T14:05:40.070Z,0.47
2022-08-07T14:06:44.663Z,0.43
2022-08-07T14:08:00.946Z,0.43
2022-08-07T14:09:04.673Z,0.32
2022-08-07T14:10:21.590Z,0.50
2022-08-07T14:11:53.327Z,0.40
2022-08-07T14:12:57.513Z,0.90
2022-08-07T14:14:08.062Z,0.60
2022-08-07T14:15:16.782Z,0.40
2022-08-07T14:16:31.078Z,0.40
2022-08-07T14:18:23.540Z,0.50
2022-08-07T14:18:57.997Z,0.40
2022-08-07T14:20:40.726Z,0.38
2022-08-07T14:22:01.021Z,0.40
2022-08-07T14:23:11.390Z,0.60
2022-08-07T14:24:15.791Z,0.60
2022-08-07T14:25:17.809Z,0.40
2022-08-07T14:26:29.896Z,0.40
2022-08-07T14:28:10.849Z,0.55
2022-08-07T14:29:02.950Z,0.50
2022-08-07T14:30:11.913Z,0.47
2022-08-07T14:31:14.329Z,0.43
2022-08-07T14:32:19.246Z,0.50
2022-08-07T14:33:23.324Z,0.50
2022-08-07T14:34:30.082Z,0.47
2022-08-07T14:35:44.975Z,0.55
2022-08-07T14:36:55.980Z,0.50
2022-08-07T14:38:05.624Z,0.45
2022-08-07T14:39:08.688Z,0.43
2022-08-07T14:40:26.568Z,0.60
2022-08-07T14:41:33.869Z,0.52
2022-08-07T14:43:57.781Z,0.50
2022-08-07T14:44:26.090Z,0.50
2022-08-07T14:45:47.144Z,0.50
2022-08-07T14:47:08.398Z,0.47
2022-08-07T14:48:11.317Z,0.40
2022-08-07T14:49:56.899Z,0.50
2022-08-07T14:50:48.739Z,0.40
2022-08-07T14:53:17.555Z,0.52
2022-08-07T14:54:41.957Z,0.30
2022-08-07T14:55:55.541Z,0.40
2022-08-07T14:56:58.940Z,0.50
2022-08-07T14:58:05.089Z,0.40
2022-08-07T15:00:32.247Z,0.40
2022-08-07T15:01:50.846Z,0.35
2022-08-07T15:02:57.063Z,0.40
2022-08-07T15:04:05.715Z,0.38
2022-08-07T15:05:20.373Z,0.43
2022-08-07T15:06:27.685Z,0.32
2022-08-07T15:07:47.594Z,0.47
2022-08-07T15:10:17.684Z,0.47
2022-08-07T15:11:52.879Z,0.60
2022-08-07T15:12:54.647Z,0.50
2022-08-07T15:13:57.760Z,0.50
2022-08-07T15:15:09.134Z,0.55
2022-08-07T15:16:35.124Z,0.40
2022-08-07T15:17:54.974Z,0.30
2022-08-07T15:19:00.792Z,0.50
2022-08-07T15:20:32.924Z,0.52
2022-08-07T15:21:59.548Z,0.40
2022-08-07T15:22:54.159Z,0.32
2022-08-07T15:25:14.671Z,0.40
2022-08-07T15:25:36.831Z,0.40
2022-08-07T15:26:55.828Z,0.40
2022-08-07T15:28:30.636Z,0.55
2022-08-07T15:30:08.407Z,0.30
2022-08-07T15:32:12.626Z,0.40
2022-08-07T15:33:19.516Z,0.30
2022-08-07T15:34:22.377Z,0.50
2022-08-07T15:36:01.743Z,0.47
2022-08-07T15:37:04.341Z,0.52
2022-08-07T15:38:30.545Z,0.22
2022-08-07T15:39:56.284Z,0.40
2022-08-07T15:44:01.558Z,0.40
2022-08-07T15:46:32.314Z,0.50
2022-08-07T15:48:00.845Z,0.47
2022-08-07T15:49:14.161Z,0.52
2022-08-07T15:53:06.725Z,0.50
2022-08-07T15:54:12.026Z,0.40
2022-08-07T15:55:15.658Z,0.38
2022-08-07T15:56:21.921Z,0.50
2022-08-07T15:57:39.833Z,0.60
2022-08-07T15:58:55.512Z,0.60
2022-08-07T15:59:59.400Z,0.40
2022-08-07T16:01:07.631Z,0.52
2022-08-07T16:02:15.069Z,0.40
2022-08-07T16:03:46.386Z,0.52
2022-08-07T16:04:43.988Z,0.50
2022-08-07T16:05:47.396Z,0.45
2022-08-07T16:06:51.911Z,0.40
2022-08-07T16:08:31.590Z,0.55
2022-08-07T16:09:22.661Z,0.70
2022-08-07T16:10:26.333Z,0.45
2022-08-07T16:11:41.689Z,0.50
2022-08-07T16:13:04.770Z,0.50
2022-08-07T16:14:11.944Z,0.40
2022-08-07T16:15:57.590Z,0.50
2022-08-07T16:17:02.803Z,0.50
2022-08-07T16:18:50.361Z,0.40
2022-08-07T16:20:08.308Z,0.43
2022-08-07T16:22:02.049Z,0.50
2022-08-07T16:22:55.725Z,0.57
2022-08-07T16:24:35.089Z,0.40
2022-08-07T16:25:55.758Z,0.55
2022-08-07T16:26:59.630Z,0.50
2022-08-07T16:30:07.781Z,0.50
2022-08-07T16:30:10.657Z,0.40
2022-08-07T16:31:50.900Z,0.30